Time;durP1;ratioP1;P1;durP2;ratioP2;P2;SDS_P1;SDS_P2;PMS_P1;PMS_P2;Temp;Humidity;BMP_temperature;BMP_pressure;BME280_temperature;BME280_humidity;BME280_pressure;Samples;Min_cycle;Max_cycle;Signal;HPM_P1;HPM_P2
2022/07/15 00:01:34;;;;;;;4.00;2.93;;;15.70;99.90;;;;;;484244;245;28815;-69
2022/07/15 00:03:35;;;;;;;2.73;2.57;;;15.60;99.90;;;;;;484264;245;28848;-71
2022/07/15 00:05:36;;;;;;;3.00;2.60;;;15.70;99.90;;;;;;484284;245;28748;-70
2022/07/15 00:07:37;;;;;;;2.93;2.53;;;15.60;99.90;;;;;;484240;245;28776;-70
2022/07/15 00:10:23;;;;;;;2.50;2.40;;;15.60;99.90;;;;;;484267;245;29377;-73
2022/07/15 00:11:43;;;;;;;2.30;2.20;;;15.60;99.90;;;;;;482905;245;29315;-73
2022/07/15 00:13:44;;;;;;;2.60;2.50;;;15.60;99.90;;;;;;484257;245;29298;-70
2022/07/15 00:15:45;;;;;;;2.90;2.70;;;15.50;99.90;;;;;;484263;245;29342;-70
2022/07/15 00:17:47;;;;;;;2.87;2.17;;;15.50;99.90;;;;;;484240;245;30000;-70
2022/07/15 00:19:48;;;;;;;2.97;2.70;;;15.40;99.90;;;;;;484290;245;28750;-70
2022/07/15 00:21:49;;;;;;;3.20;2.50;;;15.40;99.90;;;;;;484280;245;28776;-71
2022/07/15 00:23:50;;;;;;;2.40;2.30;;;15.50;99.90;;;;;;484283;245;28793;-70
2022/07/15 00:25:52;;;;;;;2.87;2.67;;;15.60;99.90;;;;;;484298;245;28861;-69
2022/07/15 00:27:53;;;;;;;2.77;2.60;;;15.60;99.90;;;;;;484257;245;28780;-69
2022/07/15 00:29:54;;;;;;;2.90;2.60;;;15.50;99.90;;;;;;484274;245;28823;-70
2022/07/15 00:31:55;;;;;;;2.20;2.10;;;15.50;99.90;;;;;;484290;245;28795;-73
2022/07/15 00:33:57;;;;;;;2.97;2.77;;;15.40;99.90;;;;;;484271;245;28750;-69
2022/07/15 00:35:58;;;;;;;2.63;2.53;;;15.30;99.90;;;;;;484278;245;28863;-70
2022/07/15 00:37:59;;;;;;;3.07;2.87;;;15.20;99.90;;;;;;484269;245;29981;-70
2022/07/15 00:40:00;;;;;;;2.80;2.30;;;15.20;99.90;;;;;;484262;245;29223;-70
2022/07/15 00:42:02;;;;;;;2.60;2.40;;;15.20;99.90;;;;;;484276;245;29286;-71
2022/07/15 00:44:03;;;;;;;4.10;3.07;;;15.10;99.90;;;;;;484242;245;28866;-69
2022/07/15 00:46:04;;;;;;;2.80;2.60;;;15.20;99.90;;;;;;484249;245;28773;-70
2022/07/15 00:48:06;;;;;;;2.87;2.63;;;15.10;99.90;;;;;;484239;245;28748;-70
2022/07/15 00:50:07;;;;;;;3.03;2.90;;;15.10;99.90;;;;;;484244;245;28859;-69
2022/07/15 00:52:08;;;;;;;2.83;2.63;;;15.10;99.90;;;;;;484273;245;28787;-73
2022/07/15 00:54:09;;;;;;;3.17;2.87;;;15.10;99.90;;;;;;484268;245;28872;-70
2022/07/15 00:56:10;;;;;;;3.50;2.83;;;15.10;99.90;;;;;;484285;245;28800;-70
2022/07/15 00:58:12;;;;;;;2.90;2.70;;;15.10;99.90;;;;;;484250;245;28749;-70
2022/07/15 01:00:13;;;;;;;2.70;2.60;;;15.00;99.90;;;;;;484279;245;28796;-70
2022/07/15 01:02:14;;;;;;;3.27;2.97;;;14.90;99.90;;;;;;484308;245;29341;-73
2022/07/15 01:04:15;;;;;;;2.63;2.53;;;14.80;99.90;;;;;;484251;245;29203;-70
2022/07/15 01:06:17;;;;;;;2.80;2.60;;;14.80;99.90;;;;;;484287;245;29342;-71
2022/07/15 01:08:18;;;;;;;3.13;2.80;;;14.70;99.90;;;;;;484296;245;29189;-69
2022/07/15 01:10:19;;;;;;;3.20;3.00;;;14.70;99.90;;;;;;484250;245;28834;-70
2022/07/15 01:12:21;;;;;;;2.57;2.43;;;14.70;99.90;;;;;;484296;245;28776;-73
2022/07/15 01:14:22;;;;;;;2.53;2.43;;;14.70;99.90;;;;;;484217;245;28744;-69
2022/07/15 01:16:23;;;;;;;2.43;2.33;;;14.60;99.90;;;;;;484277;245;28976;-69
2022/07/15 01:18:24;;;;;;;3.00;2.80;;;14.60;99.90;;;;;;484287;245;28856;-69
2022/07/15 01:20:25;;;;;;;4.17;2.50;;;14.70;99.90;;;;;;484235;245;28784;-70
2022/07/15 01:22:27;;;;;;;2.90;2.70;;;14.80;99.90;;;;;;484293;245;28801;-73
2022/07/15 01:24:28;;;;;;;2.97;2.77;;;14.80;99.90;;;;;;484253;245;28759;-70
2022/07/15 01:26:29;;;;;;;3.00;2.80;;;14.70;99.90;;;;;;484281;245;29238;-70
2022/07/15 01:28:31;;;;;;;3.40;3.13;;;14.70;99.90;;;;;;484262;245;29220;-70
2022/07/15 01:30:32;;;;;;;3.10;2.80;;;14.60;99.90;;;;;;484236;245;29346;-69
2022/07/15 01:32:33;;;;;;;2.67;2.47;;;14.60;99.90;;;;;;484303;245;29277;-71
2022/07/15 01:34:34;;;;;;;2.80;2.60;;;14.50;99.90;;;;;;484273;245;28840;-69
2022/07/15 01:36:36;;;;;;;3.07;2.87;;;14.50;99.90;;;;;;484311;245;28811;-70
2022/07/15 01:38:37;;;;;;;3.30;2.50;;;14.50;99.90;;;;;;484321;245;28855;-69
2022/07/15 01:40:38;;;;;;;2.50;2.40;;;14.50;99.90;;;;;;484278;245;28879;-70
2022/07/15 01:42:39;;;;;;;2.63;2.43;;;14.60;99.90;;;;;;484306;245;29166;-72
2022/07/15 01:44:41;;;;;;;2.60;2.50;;;14.70;99.90;;;;;;484317;245;28780;-69
2022/07/15 01:46:42;;;;;;;2.50;2.40;;;14.70;99.90;;;;;;484271;245;28819;-70
2022/07/15 01:51:02;;;;;;;2.70;2.50;;;14.30;99.90;;;;;;484242;245;28771;-70
2022/07/15 01:53:04;;;;;;;2.90;2.60;;;14.20;99.90;;;;;;484310;245;28788;-73
2022/07/15 01:55:05;;;;;;;2.70;2.50;;;14.00;99.90;;;;;;484328;245;28445;-69
2022/07/15 01:57:06;;;;;;;2.60;2.40;;;13.80;99.90;;;;;;484279;245;28859;-71
2022/07/15 01:59:07;;;;;;;3.47;3.17;;;13.80;99.90;;;;;;484298;245;29203;-69
2022/07/15 02:01:09;;;;;;;3.03;2.80;;;13.80;99.90;;;;;;484249;245;29279;-70
2022/07/15 02:03:10;;;;;;;2.90;2.60;;;13.60;99.90;;;;;;484285;245;29280;-73
2022/07/15 02:05:11;;;;;;;2.70;2.60;;;13.50;99.90;;;;;;484271;245;28748;-69
2022/07/15 02:07:12;;;;;;;3.03;2.63;;;13.60;99.90;;;;;;484225;245;28775;-69
2022/07/15 02:09:14;;;;;;;3.07;2.80;;;13.60;99.90;;;;;;484225;245;28783;-69
2022/07/15 02:11:15;;;;;;;3.23;3.03;;;13.50;99.90;;;;;;484178;245;28874;-69
2022/07/15 02:13:16;;;;;;;2.80;2.70;;;13.60;99.90;;;;;;484271;245;28500;-71
2022/07/15 02:15:17;;;;;;;3.07;2.87;;;13.60;99.90;;;;;;484238;245;28457;-71
2022/07/15 02:17:19;;;;;;;2.57;2.47;;;13.60;99.90;;;;;;484224;245;28807;-70
2022/07/15 02:19:20;;;;;;;2.70;2.50;;;13.60;99.90;;;;;;484225;245;28936;-69
2022/07/15 02:21:21;;;;;;;2.87;2.67;;;13.70;99.90;;;;;;484266;245;29259;-70
2022/07/15 02:23:23;;;;;;;3.23;3.03;;;13.60;99.90;;;;;;484315;245;29281;-73
2022/07/15 02:25:25;;;;;;;4.13;2.90;;;13.60;99.90;;;;;;484285;245;29457;-71
2022/07/15 02:27:25;;;;;;;2.80;2.60;;;13.60;99.90;;;;;;484166;245;28871;-70
2022/07/15 02:29:26;;;;;;;3.03;2.83;;;13.50;99.90;;;;;;484265;245;28216;-69
2022/07/15 02:31:27;;;;;;;2.90;2.67;;;13.40;99.90;;;;;;484276;245;28521;-69
2022/07/15 02:33:29;;;;;;;2.70;2.50;;;13.30;99.90;;;;;;484274;245;28859;-72
2022/07/15 02:35:30;;;;;;;3.13;2.90;;;13.30;99.90;;;;;;484290;245;28599;-70
2022/07/15 02:37:31;;;;;;;2.57;2.37;;;13.40;99.90;;;;;;484259;245;28279;-70
2022/07/15 02:39:32;;;;;;;3.00;2.70;;;13.50;99.90;;;;;;484296;245;28393;-69
2022/07/15 02:41:34;;;;;;;2.90;2.70;;;13.50;99.90;;;;;;484255;245;28276;-69
2022/07/15 02:43:36;;;;;;;3.27;3.00;;;13.50;99.90;;;;;;484256;245;28257;-73
2022/07/15 02:45:36;;;;;;;2.90;2.70;;;13.60;99.90;;;;;;484239;245;28792;-70
2022/07/15 02:47:37;;;;;;;2.90;2.70;;;13.60;99.90;;;;;;484225;245;29024;-71
2022/07/15 02:49:39;;;;;;;2.80;2.57;;;13.70;99.90;;;;;;484257;245;28684;-70
2022/07/15 02:51:40;;;;;;;2.73;2.53;;;13.70;99.90;;;;;;484288;245;28396;-70
2022/07/15 02:53:41;;;;;;;2.60;2.50;;;13.60;99.90;;;;;;484254;245;28473;-71
2022/07/15 02:55:42;;;;;;;2.73;2.53;;;13.50;99.90;;;;;;484288;245;28361;-70
2022/07/15 02:57:44;;;;;;;3.03;2.73;;;13.40;99.90;;;;;;484284;245;28256;-70
2022/07/15 02:59:45;;;;;;;2.70;2.50;;;13.30;99.90;;;;;;484274;245;28409;-70
2022/07/15 03:01:46;;;;;;;2.70;2.50;;;13.30;99.90;;;;;;484248;245;28238;-70
2022/07/15 03:03:47;;;;;;;2.87;2.60;;;13.20;99.90;;;;;;484263;245;28492;-71
2022/07/15 03:05:49;;;;;;;2.87;2.67;;;13.10;99.90;;;;;;484285;245;28234;-70
2022/07/15 03:07:50;;;;;;;3.87;3.57;;;13.00;99.90;;;;;;484282;245;28225;-69
2022/07/15 03:09:51;;;;;;;2.60;2.50;;;13.00;99.90;;;;;;484118;245;28783;-70
2022/07/15 03:11:53;;;;;;;3.10;2.90;;;13.20;99.90;;;;;;484280;245;29088;-70
2022/07/15 03:13:54;;;;;;;2.70;2.60;;;13.30;99.90;;;;;;484289;245;28735;-73
2022/07/15 03:15:55;;;;;;;2.70;2.50;;;13.30;99.90;;;;;;484283;245;28777;-69
2022/07/15 03:17:56;;;;;;;3.00;2.70;;;13.40;99.90;;;;;;484302;245;28426;-70
2022/07/15 03:19:57;;;;;;;2.77;2.63;;;13.20;99.90;;;;;;484272;245;28188;-69
2022/07/15 03:22:00;;;;;;;3.30;3.00;;;;;;;;;;484280;245;28355;-69
2022/07/15 03:24:01;;;;;;;2.47;2.37;;;13.00;99.90;;;;;;484273;245;26964;-70
2022/07/15 03:26:02;;;;;;;3.00;2.80;;;13.00;99.90;;;;;;484283;245;28627;-70
2022/07/15 03:28:04;;;;;;;3.30;3.10;;;13.10;99.90;;;;;;484272;245;28752;-69
2022/07/15 03:30:05;;;;;;;2.80;2.70;;;13.10;99.90;;;;;;484189;245;28257;-69
2022/07/15 03:32:06;;;;;;;3.43;3.13;;;13.30;99.90;;;;;;484244;245;28269;-72
2022/07/15 03:34:07;;;;;;;3.10;2.90;;;13.30;99.90;;;;;;484235;245;28106;-70
2022/07/15 03:36:09;;;;;;;2.87;2.67;;;13.30;99.90;;;;;;484249;245;28442;-71
2022/07/15 03:38:12;;;;;;;3.00;2.80;;;;;;;;;;484269;245;28266;-69
2022/07/15 03:40:12;;;;;;;2.63;2.43;;;13.30;99.90;;;;;;484265;245;27046;-72
2022/07/15 03:42:14;;;;;;;2.90;2.70;;;13.30;99.90;;;;;;484297;245;28637;-70
2022/07/15 03:44:15;;;;;;;3.03;2.83;;;13.40;99.90;;;;;;484278;245;28206;-70
2022/07/15 03:46:16;;;;;;;2.77;2.57;;;13.30;99.90;;;;;;484232;245;28200;-70
2022/07/15 03:48:17;;;;;;;2.80;2.60;;;13.30;99.90;;;;;;484271;245;28241;-69
2022/07/15 03:50:19;;;;;;;2.50;2.40;;;13.20;99.90;;;;;;484257;245;28443;-72
2022/07/15 03:52:20;;;;;;;2.70;2.60;;;13.20;99.90;;;;;;484260;245;28149;-70
2022/07/15 03:54:21;;;;;;;3.07;2.87;;;13.10;99.90;;;;;;484258;245;28256;-71
2022/07/15 03:56:22;;;;;;;3.10;2.80;;;13.10;99.90;;;;;;484246;245;28213;-69
2022/07/15 03:58:24;;;;;;;2.80;2.60;;;13.20;99.90;;;;;;484267;245;28315;-69
2022/07/15 04:00:25;;;;;;;2.77;2.60;;;13.20;99.90;;;;;;484241;245;28227;-75
2022/07/15 04:02:26;;;;;;;2.90;2.70;;;13.20;99.90;;;;;;484262;245;28656;-70
2022/07/15 04:04:28;;;;;;;3.10;2.90;;;13.00;99.90;;;;;;484241;245;28706;-70
2022/07/15 04:06:29;;;;;;;2.93;2.73;;;12.70;99.90;;;;;;484249;245;28638;-69
2022/07/15 04:08:31;;;;;;;2.77;2.57;;;;;;;;;;484265;245;28008;-71
2022/07/15 04:10:32;;;;;;;2.47;2.27;;;12.70;99.90;;;;;;484270;245;26509;-69
2022/07/15 04:12:34;;;;;;;3.10;2.90;;;12.70;99.90;;;;;;484245;245;28362;-71
2022/07/15 04:14:35;;;;;;;2.90;2.70;;;12.70;99.90;;;;;;484264;245;29726;-69
2022/07/15 04:16:36;;;;;;;3.03;2.60;;;12.70;99.90;;;;;;484229;245;29267;-69
2022/07/15 04:18:37;;;;;;;2.67;2.53;;;12.80;99.90;;;;;;484259;245;28615;-72
2022/07/15 04:20:39;;;;;;;2.90;2.70;;;12.80;99.90;;;;;;484292;245;28907;-69
2022/07/15 04:22:40;;;;;;;2.90;2.70;;;12.90;99.90;;;;;;484245;245;28154;-70
2022/07/15 04:24:41;;;;;;;3.07;2.87;;;13.00;99.90;;;;;;484269;245;28129;-69
2022/07/15 04:26:42;;;;;;;2.80;2.60;;;13.10;99.90;;;;;;484267;245;28118;-70
2022/07/15 04:28:44;;;;;;;2.60;2.40;;;13.20;99.90;;;;;;484298;245;28330;-71
2022/07/15 04:30:46;;;;;;;2.63;2.53;;;;;;;;;;484278;245;28244;-70
2022/07/15 04:32:47;;;;;;;3.77;2.70;;;13.20;99.90;;;;;;484291;245;26835;-69
2022/07/15 04:34:48;;;;;;;2.90;2.70;;;13.30;99.90;;;;;;484293;245;28387;-70
2022/07/15 04:36:50;;;;;;;3.27;2.97;;;13.30;99.90;;;;;;484266;245;28362;-72
2022/07/15 04:38:51;;;;;;;4.70;2.90;;;13.30;99.90;;;;;;484310;245;28273;-70
2022/07/15 04:40:52;;;;;;;2.90;2.70;;;13.30;99.90;;;;;;484306;245;28467;-70
2022/07/15 04:42:53;;;;;;;2.90;2.70;;;13.40;99.90;;;;;;484262;245;28272;-70
2022/07/15 04:44:55;;;;;;;2.83;2.63;;;13.40;99.90;;;;;;484287;245;28281;-70
2022/07/15 04:46:56;;;;;;;3.40;3.20;;;13.40;99.90;;;;;;484289;245;28548;-71
2022/07/15 04:51:17;;;;;;;3.00;2.80;;;13.50;99.90;;;;;;484293;245;28322;-70
2022/07/15 04:53:19;;;;;;;3.60;3.30;;;13.50;99.90;;;;;;484254;245;28559;-70
2022/07/15 04:55:20;;;;;;;4.03;3.73;;;13.40;99.90;;;;;;484293;245;28411;-69
2022/07/15 04:57:21;;;;;;;3.40;3.20;;;13.40;99.90;;;;;;486865;243;28394;-69
2022/07/15 04:59:22;;;;;;;8.30;3.23;;;13.40;99.90;;;;;;489946;241;29276;-72
2022/07/15 05:01:23;;;;;;;5.50;3.80;;;13.50;99.90;;;;;;489980;241;29102;-70
2022/07/15 05:03:25;;;;;;;3.27;3.03;;;13.60;99.90;;;;;;489929;241;29341;-70
2022/07/15 05:05:26;;;;;;;3.20;2.77;;;13.60;99.90;;;;;;489977;241;30020;-69
2022/07/15 05:07:27;;;;;;;3.20;3.00;;;13.70;99.90;;;;;;489936;241;28778;-70
2022/07/15 05:09:28;;;;;;;3.47;3.27;;;13.80;99.90;;;;;;489984;241;28413;-72
2022/07/15 05:11:30;;;;;;;4.33;4.03;;;13.80;99.90;;;;;;489964;241;28432;-70
2022/07/15 05:13:31;;;;;;;4.07;3.77;;;13.90;99.90;;;;;;489975;242;28927;-72
2022/07/15 05:15:34;;;;;;;3.47;3.20;;;14.00;99.90;;;;;;489957;241;28866;-71
2022/07/15 05:17:33;;;;;;;4.00;3.70;;;14.10;99.90;;;;;;489933;241;28810;-69
2022/07/15 05:19:35;;;;;;;3.50;3.30;;;14.00;99.90;;;;;;489946;241;28875;-71
2022/07/15 05:21:36;;;;;;;3.67;3.30;;;14.10;99.90;;;;;;489975;241;28771;-70
2022/07/15 05:23:37;;;;;;;3.40;3.20;;;14.10;99.90;;;;;;489983;241;29328;-70
2022/07/15 05:25:38;;;;;;;4.87;3.67;;;14.00;99.90;;;;;;489963;241;29389;-70
2022/07/15 05:27:40;;;;;;;4.03;3.70;;;14.10;99.90;;;;;;490008;241;29233;-70
2022/07/15 05:29:41;;;;;;;3.83;3.53;;;14.30;99.90;;;;;;490018;241;29282;-70
2022/07/15 05:31:42;;;;;;;3.90;3.70;;;14.30;99.90;;;;;;489977;241;28801;-70
2022/07/15 05:33:43;;;;;;;3.27;2.97;;;14.40;99.90;;;;;;490007;241;28882;-70
2022/07/15 05:35:45;;;;;;;3.10;2.90;;;14.40;99.90;;;;;;489988;241;28864;-73
2022/07/15 05:37:46;;;;;;;3.00;2.80;;;14.50;99.90;;;;;;489948;241;28785;-70
2022/07/15 05:39:53;;;;;;;3.30;3.10;;;14.60;99.90;;;;;;489883;242;28833;-72
2022/07/15 05:41:51;;;;;;;3.60;3.40;;;14.70;99.90;;;;;;489795;242;28447;-71
2022/07/15 05:43:52;;;;;;;3.30;3.10;;;14.70;99.90;;;;;;489963;241;28851;-70
2022/07/15 05:45:54;;;;;;;3.33;3.13;;;14.80;99.90;;;;;;489770;241;28838;-71
2022/07/15 05:47:55;;;;;;;3.13;2.90;;;14.80;99.90;;;;;;489553;241;28951;-74
2022/07/15 05:49:56;;;;;;;3.60;3.30;;;15.10;99.90;;;;;;489989;241;28778;-70
2022/07/15 05:51:57;;;;;;;3.20;3.00;;;15.20;99.90;;;;;;489974;241;29286;-71
2022/07/15 05:53:59;;;;;;;2.60;2.40;;;15.40;99.90;;;;;;486828;241;36558;-70
2022/07/15 05:56:00;;;;;;;4.03;2.93;;;15.50;99.90;;;;;;489973;241;28083;-69
2022/07/15 05:58:01;;;;;;;3.60;3.00;;;15.50;99.90;;;;;;489512;241;35169;-72
2022/07/15 06:00:03;;;;;;;2.90;2.37;;;15.40;99.90;;;;;;486522;241;35793;-70
2022/07/15 06:02:04;;;;;;;3.90;3.23;;;15.40;99.90;;;;;;489997;241;27569;-70
2022/07/15 06:04:05;;;;;;;3.70;3.00;;;15.40;99.90;;;;;;489968;241;28942;-70
2022/07/15 06:06:07;;;;;;;3.00;2.80;;;15.30;99.90;;;;;;489957;241;28817;-70
2022/07/15 06:08:07;;;;;;;4.40;2.57;;;15.50;99.90;;;;;;489927;241;29307;-70
2022/07/15 06:10:09;;;;;;;4.30;2.90;;;15.60;99.90;;;;;;489924;241;28786;-69
2022/07/15 06:12:10;;;;;;;2.80;2.60;;;15.40;99.90;;;;;;489961;241;29350;-69
2022/07/15 06:14:11;;;;;;;2.97;2.67;;;15.60;99.90;;;;;;489948;241;29301;-69
2022/07/15 06:16:13;;;;;;;2.80;2.60;;;15.40;99.90;;;;;;489948;241;29236;-69
2022/07/15 06:18:14;;;;;;;3.57;2.80;;;15.50;99.90;;;;;;489988;241;29301;-72
2022/07/15 06:20:15;;;;;;;5.17;3.30;;;15.70;99.90;;;;;;489947;241;29379;-69
2022/07/15 06:22:16;;;;;;;3.30;3.00;;;15.60;99.90;;;;;;489975;241;28830;-69
2022/07/15 06:24:18;;;;;;;4.10;3.10;;;15.50;99.90;;;;;;489983;241;28808;-69
2022/07/15 06:26:19;;;;;;;5.73;2.83;;;15.70;99.90;;;;;;489928;241;28872;-68
2022/07/15 06:28:20;;;;;;;7.87;3.10;;;15.80;99.90;;;;;;489995;241;28893;-72
2022/07/15 06:30:21;;;;;;;5.00;2.60;;;16.00;99.90;;;;;;489960;241;28779;-69
2022/07/15 06:32:23;;;;;;;3.23;2.80;;;16.10;99.90;;;;;;489952;242;28824;-70
2022/07/15 06:34:24;;;;;;;3.07;2.73;;;16.20;99.90;;;;;;490006;241;28787;-72
2022/07/15 06:36:25;;;;;;;3.50;2.90;;;16.00;99.90;;;;;;489941;241;28846;-69
2022/07/15 06:38:27;;;;;;;4.03;3.23;;;16.00;99.90;;;;;;489970;241;28922;-73
2022/07/15 06:40:28;;;;;;;4.90;3.00;;;16.10;99.90;;;;;;489961;241;29239;-69
2022/07/15 06:42:29;;;;;;;3.90;2.97;;;16.20;99.90;;;;;;489636;241;29380;-70
2022/07/15 06:44:30;;;;;;;4.23;2.83;;;16.10;99.90;;;;;;479291;247;29356;-69
2022/07/15 06:46:31;;;;;;;3.67;3.20;;;16.20;99.90;;;;;;483362;245;28899;-70
2022/07/15 06:48:33;;;;;;;3.03;2.63;;;16.10;99.90;;;;;;483036;245;28917;-75
2022/07/15 06:50:34;;;;;;;2.70;2.50;;;16.30;99.90;;;;;;483347;245;28868;-70
2022/07/15 06:52:35;;;;;;;3.03;2.83;;;16.40;99.90;;;;;;483419;245;28849;-70
2022/07/15 06:54:36;;;;;;;8.63;2.97;;;16.60;99.90;;;;;;483443;246;28875;-69
2022/07/15 06:56:38;;;;;;;4.37;2.50;;;16.70;99.90;;;;;;483416;245;28847;-70
2022/07/15 06:58:39;;;;;;;7.60;3.00;;;16.70;99.90;;;;;;483444;246;28830;-72
2022/07/15 07:00:40;;;;;;;3.80;2.83;;;16.80;99.90;;;;;;483439;245;28872;-69
2022/07/15 07:02:41;;;;;;;3.80;2.80;;;16.70;99.90;;;;;;483439;245;28884;-69
2022/07/15 07:04:43;;;;;;;3.03;2.70;;;16.70;99.90;;;;;;483425;246;29346;-69
2022/07/15 07:06:44;;;;;;;4.40;2.70;;;16.80;99.90;;;;;;483429;245;29297;-69
2022/07/15 07:08:46;;;;;;;3.03;2.83;;;16.80;99.90;;;;;;483482;245;29349;-71
2022/07/15 07:10:46;;;;;;;6.40;2.90;;;16.90;99.90;;;;;;483422;245;29303;-69
2022/07/15 07:12:48;;;;;;;3.70;2.50;;;16.80;99.90;;;;;;483457;245;28831;-70
2022/07/15 07:14:49;;;;;;;3.37;2.83;;;16.70;99.90;;;;;;483483;245;28792;-69
2022/07/15 07:16:50;;;;;;;2.63;2.43;;;16.80;99.90;;;;;;483473;245;28793;-69
2022/07/15 07:18:51;;;;;;;3.53;2.50;;;16.80;99.90;;;;;;483440;245;28807;-71
2022/07/15 07:20:53;;;;;;;3.60;2.40;;;16.70;99.90;;;;;;483452;245;28884;-70
2022/07/15 07:22:54;;;;;;;2.40;2.20;;;16.80;99.90;;;;;;483458;245;28936;-70
2022/07/15 07:24:55;;;;;;;5.80;2.90;;;16.90;99.90;;;;;;483451;245;28865;-69
2022/07/15 07:26:56;;;;;;;5.80;3.17;;;17.00;99.90;;;;;;483443;245;28796;-70
2022/07/15 07:28:58;;;;;;;3.23;2.50;;;16.90;99.90;;;;;;483432;245;29363;-70
2022/07/15 07:30:59;;;;;;;7.20;2.77;;;16.90;99.90;;;;;;483449;245;29220;-69
2022/07/15 07:33:00;;;;;;;5.60;3.07;;;16.70;99.90;;;;;;483431;245;29338;-70
2022/07/15 07:35:01;;;;;;;3.50;2.77;;;16.80;99.90;;;;;;483459;245;29224;-69
2022/07/15 07:37:03;;;;;;;3.90;3.00;;;16.90;99.90;;;;;;483437;246;28788;-70
2022/07/15 07:39:04;;;;;;;4.23;2.80;;;17.20;99.90;;;;;;483445;245;28832;-71
2022/07/15 07:41:05;;;;;;;4.63;3.37;;;17.20;99.90;;;;;;483426;245;28824;-70
2022/07/15 07:43:06;;;;;;;5.40;2.57;;;17.20;99.90;;;;;;483431;245;28824;-70
2022/07/15 07:45:08;;;;;;;2.80;2.60;;;17.40;99.90;;;;;;483390;245;28772;-69
2022/07/15 07:47:09;;;;;;;2.40;2.30;;;17.60;99.90;;;;;;483387;245;28812;-70
2022/07/15 07:49:12;;;;;;;4.27;2.80;;;17.60;99.90;;;;;;483404;246;28830;-72
2022/07/15 07:51:11;;;;;;;3.60;3.10;;;17.50;99.90;;;;;;483261;246;28777;-69
2022/07/15 07:53:13;;;;;;;2.40;2.20;;;17.40;99.90;;;;;;483391;245;29315;-70
2022/07/15 07:55:17;;;;;;;5.77;2.30;;;17.50;99.90;;;;;;483407;245;29257;-69
2022/07/15 07:57:15;;;;;;;3.60;2.50;;;17.60;99.90;;;;;;483261;246;29299;-68
2022/07/15 07:59:16;;;;;;;2.70;2.43;;;17.80;99.90;;;;;;483387;245;28833;-72
2022/07/15 08:01:18;;;;;;;4.23;2.20;;;17.90;99.90;;;;;;483391;245;28791;-70
2022/07/15 08:03:19;;;;;;;4.10;2.40;;;18.20;99.90;;;;;;483420;245;29267;-70
2022/07/15 08:05:20;;;;;;;2.40;2.20;;;18.00;99.90;;;;;;483457;241;29208;-69
2022/07/15 08:07:22;;;;;;;5.07;2.20;;;18.00;99.90;;;;;;483396;245;29298;-71
2022/07/15 08:09:23;;;;;;;2.70;2.50;;;18.10;99.90;;;;;;483385;245;29298;-72
2022/07/15 08:11:24;;;;;;;3.23;3.00;;;18.20;99.90;;;;;;483414;245;28848;-69
2022/07/15 08:13:25;;;;;;;4.93;3.40;;;18.30;99.90;;;;;;483389;245;28853;-70
2022/07/15 08:15:26;;;;;;;4.80;2.60;;;18.20;99.90;;;;;;483371;246;28769;-70
2022/07/15 08:17:28;;;;;;;4.97;2.50;;;18.10;99.90;;;;;;483365;245;28792;-69
2022/07/15 08:19:29;;;;;;;7.40;2.30;;;18.00;99.90;;;;;;483402;245;28823;-72
2022/07/15 08:21:30;;;;;;;3.73;2.50;;;18.10;99.90;;;;;;483365;245;28881;-70
2022/07/15 08:23:32;;;;;;;3.00;2.13;;;18.20;99.90;;;;;;483409;245;28835;-70
2022/07/15 08:25:33;;;;;;;3.40;2.60;;;18.10;99.90;;;;;;483356;246;28919;-69
2022/07/15 08:27:34;;;;;;;2.33;2.13;;;18.30;99.90;;;;;;483405;245;29252;-69
2022/07/15 08:29:35;;;;;;;2.80;2.27;;;18.30;99.90;;;;;;483420;245;29325;-72
2022/07/15 08:31:36;;;;;;;2.60;2.10;;;18.50;99.90;;;;;;483391;245;29238;-70
2022/07/15 08:33:38;;;;;;;2.60;2.40;;;18.70;99.90;;;;;;483425;246;29409;-70
2022/07/15 08:35:41;;;;;;;2.17;1.97;;;18.70;99.90;;;;;;483443;245;28851;-69
2022/07/15 08:37:40;;;;;;;6.17;2.83;;;18.50;99.90;;;;;;483308;246;28908;-71
2022/07/15 08:39:41;;;;;;;3.60;2.40;;;18.50;99.90;;;;;;483419;245;28828;-73
2022/07/15 08:41:43;;;;;;;2.40;2.10;;;18.80;99.90;;;;;;483391;245;28883;-70
2022/07/15 08:43:44;;;;;;;2.17;1.97;;;18.80;99.90;;;;;;483373;246;28811;-70
2022/07/15 08:45:46;;;;;;;4.07;2.23;;;18.80;99.90;;;;;;483403;245;28822;-70
2022/07/15 08:47:47;;;;;;;3.03;1.90;;;18.80;99.90;;;;;;483273;246;28820;-69
2022/07/15 08:49:48;;;;;;;5.30;2.53;;;18.70;99.90;;;;;;483345;245;28827;-72
2022/07/15 08:51:49;;;;;;;2.60;2.20;;;18.50;99.90;;;;;;483373;245;28793;-69
2022/07/15 08:53:51;;;;;;;3.20;2.27;;;18.60;99.90;;;;;;483319;246;29297;-70
2022/07/15 08:55:52;;;;;;;3.27;1.90;;;18.70;99.90;;;;;;483379;245;30079;-69
2022/07/15 08:57:53;;;;;;;4.20;2.40;;;18.90;99.90;;;;;;483145;246;29331;-70
2022/07/15 08:59:54;;;;;;;6.63;2.20;;;18.80;99.90;;;;;;483333;246;28842;-72
2022/07/15 09:01:55;;;;;;;3.33;2.10;;;19.10;99.90;;;;;;483383;245;28825;-70
2022/07/15 09:03:57;;;;;;;2.27;2.07;;;19.10;99.90;;;;;;483351;246;28831;-70
2022/07/15 09:05:58;;;;;;;3.53;2.40;;;19.30;99.90;;;;;;483372;245;28819;-69
2022/07/15 09:07:59;;;;;;;3.90;2.40;;;19.50;99.90;;;;;;483312;243;29194;-70
2022/07/15 09:10:00;;;;;;;2.23;2.10;;;19.40;99.90;;;;;;483099;245;28859;-72
2022/07/15 09:12:02;;;;;;;2.10;2.00;;;19.60;99.90;;;;;;483353;245;28890;-70
2022/07/15 09:14:03;;;;;;;3.00;2.20;;;19.90;99.90;;;;;;483404;246;28817;-71
2022/07/15 09:16:08;;;;;;;5.20;2.60;;;20.10;99.90;;;;;;483388;245;28822;-71
2022/07/15 09:18:08;;;;;;;4.30;2.30;;;20.20;99.90;;;;;;483377;246;28824;-71
2022/07/15 09:20:09;;;;;;;2.30;2.03;;;20.40;99.90;;;;;;483406;245;28882;-69
2022/07/15 09:22:10;;;;;;;2.93;2.03;;;20.50;99.90;;;;;;483447;245;28823;-74
2022/07/15 09:24:12;;;;;;;3.30;1.73;;;20.50;99.90;;;;;;484079;241;29015;-70
2022/07/15 09:26:13;;;;;;;7.30;2.40;;;20.70;99.90;;;;;;483428;245;28886;-71
2022/07/15 09:28:14;;;;;;;3.83;2.03;;;20.60;99.90;;;;;;482322;245;35967;-70
2022/07/15 09:34:55;;;;;;;3.20;1.90;;;20.50;99.90;;;;;;483377;246;29404;-70
2022/07/15 09:36:57;;;;;;;2.50;2.13;;;20.40;99.90;;;;;;483412;245;28831;-70
2022/07/15 09:38:57;;;;;;;2.07;1.77;;;20.10;99.90;;;;;;483372;246;28830;-73
2022/07/15 09:40:58;;;;;;;2.20;2.00;;;20.00;99.90;;;;;;483408;245;28842;-70
2022/07/15 09:43:03;;;;;;;2.50;2.00;;;19.70;99.90;;;;;;483408;245;28878;-71
2022/07/15 09:45:01;;;;;;;4.17;2.20;;;19.70;99.90;;;;;;483201;246;28880;-70
2022/07/15 09:47:03;;;;;;;5.23;2.23;;;19.80;99.90;;;;;;483436;245;28867;-70
2022/07/15 09:49:04;;;;;;;4.00;1.90;;;20.20;99.90;;;;;;483450;245;28824;-72
2022/07/15 09:51:05;;;;;;;2.17;2.03;;;20.30;99.90;;;;;;483449;245;28795;-70
2022/07/15 09:53:06;;;;;;;2.40;2.03;;;20.50;99.90;;;;;;483433;245;28830;-71
2022/07/15 09:55:07;;;;;;;2.57;2.37;;;20.40;99.90;;;;;;483353;245;29509;-70
2022/07/15 09:57:08;;;;;;;4.23;2.20;;;20.40;99.90;;;;;;483438;246;29326;-70
2022/07/15 09:59:10;;;;;;;4.13;2.23;;;20.50;99.90;;;;;;483441;245;29294;-72
2022/07/15 10:01:11;;;;;;;4.47;2.90;;;20.40;99.90;;;;;;483432;245;28765;-71
2022/07/15 10:03:12;;;;;;;2.77;2.40;;;20.30;99.90;;;;;;483440;245;28813;-71
2022/07/15 10:05:13;;;;;;;3.10;2.83;;;20.20;99.90;;;;;;483446;245;28863;-70
2022/07/15 10:07:15;;;;;;;3.33;2.20;;;20.50;99.90;;;;;;483451;245;28862;-69
2022/07/15 10:09:16;;;;;;;2.60;2.40;;;20.60;99.90;;;;;;483441;245;28827;-72
2022/07/15 10:11:17;;;;;;;2.90;2.10;;;20.50;99.90;;;;;;483452;245;28858;-70
2022/07/15 10:13:18;;;;;;;2.67;2.40;;;20.70;99.90;;;;;;483444;245;28827;-70
2022/07/15 10:15:20;;;;;;;4.30;2.83;;;20.30;99.90;;;;;;483448;245;28843;-70
2022/07/15 10:17:21;;;;;;;4.30;2.60;;;20.30;99.90;;;;;;483436;243;28867;-70
2022/07/15 10:19:22;;;;;;;2.77;2.50;;;20.50;99.90;;;;;;483320;245;29400;-71
2022/07/15 10:21:23;;;;;;;3.47;2.20;;;20.40;99.90;;;;;;483323;245;29323;-69
2022/07/15 10:23:25;;;;;;;2.13;1.93;;;20.50;99.90;;;;;;483410;245;29284;-71
2022/07/15 10:25:26;;;;;;;2.60;2.40;;;20.60;99.90;;;;;;483429;245;29370;-70
2022/07/15 10:27:27;;;;;;;3.03;2.33;;;20.60;99.90;;;;;;483445;245;28842;-70
2022/07/15 10:29:28;;;;;;;2.50;2.30;;;20.60;99.90;;;;;;483443;245;28896;-71
2022/07/15 10:31:30;;;;;;;4.10;2.30;;;20.70;99.90;;;;;;483458;245;28854;-70
2022/07/15 10:33:31;;;;;;;3.57;2.60;;;20.70;99.90;;;;;;483447;245;28846;-70
2022/07/15 10:35:32;;;;;;;2.40;2.07;;;20.80;99.90;;;;;;483436;245;28828;-69
2022/07/15 10:37:33;;;;;;;3.03;2.47;;;21.00;99.90;;;;;;483459;245;28794;-70
2022/07/15 10:39:35;;;;;;;2.17;2.07;;;21.00;99.90;;;;;;483448;245;28875;-71
2022/07/15 10:41:36;;;;;;;2.10;1.93;;;21.30;99.90;;;;;;483443;245;28858;-70